Portada
METAR-TAF:

METAR-TAF

Aeropuertos :

Aeropuerto Internacional de Lusaka

Lusaka, Zambia

latitud: 15-19-51S, longitud: 028-27-09E, altitud: 1152 m

Observación

El informe se hizo hace 1 hora y 40 minutos, a las 09:00 UTC
Viento 13 kt del este
Temperatura 22°C
Humedad 78%
Presión 1024 hPa
Visibilidad 10 km o más
Cielo nuboso a una altura de 1000 ft

METAR: FLKK 190900Z 09013KT 9999 BKN010 22/18 Q1024

Hora: 12:40 (10:40 UTC)


TAF: falta

Observaciones y pronósticos meteorológicos de más de 4000 aeropuertos (mensajes METAR y TAF).

Los puntos amarillos y rojos representan las estaciones disponibles.

Ponga el ratón en el punto deseado para ver el nombre de la estación.

Haga clic para ver las observaciones y los pronósticos meteorológicos.

Para cambiar el mapa : haga clic en los botones verdes con una cruz de color negro para hacer un zoom, en el botón verde con un guión para alejar o en las flechas verdes para mapas adyacentes.


METAR-TAF: